Time;durP1;ratioP1;P1;durP2;ratioP2;P2;SDS_P1;SDS_P2;PMS_P1;PMS_P2;Temp;Humidity;BMP_temperature;BMP_pressure;BME280_temperature;BME280_humidity;BME280_pressure;Samples;Min_cycle;Max_cycle;Signal;HPM_P1;HPM_P2
2023/05/09 00:00:09;;;;;;;8.80;6.57;;;;;;;;;;5053003;28;20025;-58
2023/05/09 00:02:35;;;;;;;9.57;7.00;;;;;;;;;;5046351;28;20036;-58
2023/05/09 00:05:01;;;;;;;10.17;6.27;;;;;;;;;;5052469;28;20045;-58
2023/05/09 00:07:27;;;;;;;9.67;6.93;;;;;;;;;;5053982;28;20024;-58
2023/05/09 00:09:52;;;;;;;9.00;6.63;;;;;;;;;;5051852;28;20017;-58
2023/05/09 00:12:18;;;;;;;10.43;7.37;;;;;;;;;;5051528;28;20469;-57
2023/05/09 00:14:44;;;;;;;9.47;6.53;;;;;;;;;;5051640;28;20108;-57
2023/05/09 00:17:09;;;;;;;12.27;6.27;;;;;;;;;;5053547;28;20592;-58
2023/05/09 00:19:35;;;;;;;9.20;6.50;;;;;;;;;;5054325;28;20032;-58
2023/05/09 00:22:00;;;;;;;10.27;6.70;;;;;;;;;;5052983;28;20021;-58
2023/05/09 00:24:25;;;;;;;10.07;7.10;;;;;;;;;;5052315;28;20029;-58
2023/05/09 00:26:51;;;;;;;10.60;6.80;;;;;;;;;;5051631;28;20033;-57
2023/05/09 00:29:16;;;;;;;9.10;6.73;;;;;;;;;;5052057;28;20526;-57
2023/05/09 00:31:41;;;;;;;11.00;6.67;;;;;;;;;;5052153;28;20055;-57
2023/05/09 00:34:07;;;;;;;9.50;6.40;;;;;;;;;;5051876;28;20029;-57
2023/05/09 00:36:32;;;;;;;10.77;7.07;;;;;;;;;;5054211;28;20028;-58
2023/05/09 00:38:57;;;;;;;9.60;6.77;;;;;;;;;;5051935;28;20017;-58
2023/05/09 00:41:22;;;;;;;11.17;6.37;;;;;;;;;;5053057;28;20029;-58
2023/05/09 00:43:48;;;;;;;10.53;6.20;;;;;;;;;;5051738;28;20488;-58
2023/05/09 00:46:13;;;;;;;10.23;6.30;;;;;;;;;;5051593;28;20108;-57
2023/05/09 00:48:38;;;;;;;10.00;5.97;;;;;;;;;;5046516;28;20025;-58
2023/05/09 00:51:04;;;;;;;8.90;5.33;;;;;;;;;;5053509;28;20028;-58
2023/05/09 00:53:29;;;;;;;10.33;6.20;;;;;;;;;;5050044;28;20033;-58
2023/05/09 00:55:56;;;;;;;8.93;6.33;;;;;;;;;;5053674;28;20029;-58
2023/05/09 00:58:21;;;;;;;9.67;5.50;;;;;;;;;;5052597;28;20029;-57
2023/05/09 01:03:50;;;;;;;7.60;5.47;;;;;;;;;;5051826;22;20537;-66
2023/05/09 01:06:38;;;;;;;8.47;6.20;;;;;;;;;;5036689;28;20025;-67
2023/05/09 01:09:22;;;;;;;10.03;6.00;;;;;;;;;;5036735;28;20056;-66
2023/05/09 01:11:55;;;;;;;9.07;6.00;;;;;;;;;;5056064;28;20040;-66
2023/05/09 01:14:28;;;;;;;10.13;6.50;;;;;;;;;;5036108;28;20020;-66
2023/05/09 01:17:17;;;;;;;11.87;6.53;;;;;;;;;;5040695;28;20025;-66
2023/05/09 01:20:01;;;;;;;8.73;6.30;;;;;;;;;;5043896;28;20116;-66
2023/05/09 01:22:30;;;;;;;9.73;5.83;;;;;;;;;;5043037;28;20086;-66
2023/05/09 01:25:31;;;;;;;9.50;6.20;;;;;;;;;;5045767;28;20052;-66
2023/05/09 01:28:02;;;;;;;9.40;6.20;;;;;;;;;;4978309;28;20026;-65
2023/05/09 01:30:28;;;;;;;9.93;6.30;;;;;;;;;;4987438;28;20046;-65
2023/05/09 01:32:55;;;;;;;9.30;6.30;;;;;;;;;;4989092;28;20459;-66
2023/05/09 01:35:22;;;;;;;8.70;6.07;;;;;;;;;;4988739;28;20538;-65
2023/05/09 01:37:49;;;;;;;8.80;6.13;;;;;;;;;;4992065;28;20026;-66
2023/05/09 01:40:15;;;;;;;9.43;6.37;;;;;;;;;;4982381;28;20469;-66
2023/05/09 01:42:46;;;;;;;9.97;6.10;;;;;;;;;;4980575;28;20062;-66
2023/05/09 01:45:12;;;;;;;9.10;6.40;;;;;;;;;;4987004;28;20026;-66
2023/05/09 01:47:38;;;;;;;10.00;5.90;;;;;;;;;;4977149;28;20045;-66
2023/05/09 01:50:04;;;;;;;8.30;5.87;;;;;;;;;;4983884;28;20053;-66
2023/05/09 01:52:30;;;;;;;8.07;5.57;;;;;;;;;;4982605;28;20512;-66
2023/05/09 01:54:56;;;;;;;8.50;5.70;;;;;;;;;;4979852;28;20126;-66
2023/05/09 01:57:22;;;;;;;12.80;6.00;;;;;;;;;;4990900;28;20022;-66
2023/05/09 01:59:48;;;;;;;8.60;5.37;;;;;;;;;;4973841;28;20034;-66
2023/05/09 02:02:13;;;;;;;10.33;5.40;;;;;;;;;;5020392;28;20068;-66
2023/05/09 02:04:40;;;;;;;8.43;5.50;;;;;;;;;;5032454;28;20049;-66
2023/05/09 02:07:07;;;;;;;9.73;5.70;;;;;;;;;;5032108;28;20520;-66
2023/05/09 02:09:32;;;;;;;9.07;5.50;;;;;;;;;;5031708;28;20038;-67
2023/05/09 02:11:57;;;;;;;9.27;5.00;;;;;;;;;;5030763;28;20017;-67
2023/05/09 02:14:23;;;;;;;9.67;6.00;;;;;;;;;;5029419;28;20489;-67
2023/05/09 02:16:48;;;;;;;9.20;5.17;;;;;;;;;;5029853;28;20381;-67
2023/05/09 02:19:14;;;;;;;6.57;4.57;;;;;;;;;;5030579;28;20738;-66
2023/05/09 02:21:40;;;;;;;8.40;5.03;;;;;;;;;;5048347;28;20017;-66
2023/05/09 02:24:05;;;;;;;6.63;4.63;;;;;;;;;;5030889;28;20630;-67
2023/05/09 02:26:31;;;;;;;8.53;5.20;;;;;;;;;;5028442;28;20018;-67
2023/05/09 02:28:56;;;;;;;7.80;5.60;;;;;;;;;;5029536;28;20017;-66
2023/05/09 02:31:24;;;;;;;8.20;5.23;;;;;;;;;;5029145;28;20540;-67
2023/05/09 02:33:51;;;;;;;6.83;4.80;;;;;;;;;;5029004;28;20032;-67
2023/05/09 02:36:17;;;;;;;10.27;5.13;;;;;;;;;;5030213;28;20068;-66
2023/05/09 02:38:43;;;;;;;8.37;5.07;;;;;;;;;;5028936;28;20025;-66
2023/05/09 02:41:11;;;;;;;8.57;5.47;;;;;;;;;;5030212;28;20026;-66
2023/05/09 02:43:37;;;;;;;8.67;5.40;;;;;;;;;;5028647;28;20029;-66
2023/05/09 02:46:02;;;;;;;8.37;5.17;;;;;;;;;;5026166;28;20083;-66
2023/05/09 02:48:27;;;;;;;10.03;5.53;;;;;;;;;;5028466;28;20385;-66
2023/05/09 02:50:53;;;;;;;8.97;5.27;;;;;;;;;;5029413;28;20420;-64
2023/05/09 02:53:18;;;;;;;7.03;5.00;;;;;;;;;;5030400;28;20551;-64
2023/05/09 02:55:43;;;;;;;6.77;4.77;;;;;;;;;;5030394;28;20100;-64
2023/05/09 02:58:09;;;;;;;8.63;5.40;;;;;;;;;;5030231;28;20037;-64
2023/05/09 03:00:34;;;;;;;7.93;5.30;;;;;;;;;;5030972;28;20084;-66
2023/05/09 03:02:59;;;;;;;8.50;5.10;;;;;;;;;;5029998;28;20048;-66
2023/05/09 03:05:25;;;;;;;8.17;5.30;;;;;;;;;;5030159;28;20064;-66
2023/05/09 03:07:50;;;;;;;8.40;5.23;;;;;;;;;;5033150;28;20097;-66
2023/05/09 03:10:16;;;;;;;6.97;5.00;;;;;;;;;;5030786;28;20384;-66
2023/05/09 03:12:42;;;;;;;7.60;5.13;;;;;;;;;;5029285;28;20067;-66
2023/05/09 03:15:08;;;;;;;6.83;4.70;;;;;;;;;;5030833;28;20121;-66
2023/05/09 03:17:33;;;;;;;8.30;4.50;;;;;;;;;;5030914;28;20104;-66
2023/05/09 03:19:58;;;;;;;7.67;5.00;;;;;;;;;;5031573;28;20067;-66
2023/05/09 03:22:24;;;;;;;8.97;4.90;;;;;;;;;;5030037;28;20117;-66
2023/05/09 03:24:49;;;;;;;8.93;5.03;;;;;;;;;;5029745;28;20108;-66
2023/05/09 03:27:14;;;;;;;7.30;4.77;;;;;;;;;;5028949;28;20513;-66
2023/05/09 03:29:40;;;;;;;6.80;4.60;;;;;;;;;;5031288;28;20017;-66
2023/05/09 03:32:05;;;;;;;9.80;4.80;;;;;;;;;;5033854;28;20021;-66
2023/05/09 03:34:30;;;;;;;8.67;4.73;;;;;;;;;;5035643;28;20473;-67
2023/05/09 03:36:56;;;;;;;6.77;4.60;;;;;;;;;;5030891;28;20096;-66
2023/05/09 03:39:21;;;;;;;11.30;4.67;;;;;;;;;;5034963;28;20032;-66
2023/05/09 03:41:47;;;;;;;7.40;4.80;;;;;;;;;;5032692;28;20033;-66
2023/05/09 03:44:13;;;;;;;6.67;4.17;;;;;;;;;;5035765;28;20033;-66
2023/05/09 03:46:38;;;;;;;7.43;4.57;;;;;;;;;;5029951;28;20021;-66
2023/05/09 03:49:03;;;;;;;8.70;4.57;;;;;;;;;;5046647;28;20024;-67
2023/05/09 03:51:29;;;;;;;7.73;4.40;;;;;;;;;;5033004;28;20014;-66
2023/05/09 03:53:55;;;;;;;6.63;4.20;;;;;;;;;;5035322;28;20033;-67
2023/05/09 03:56:21;;;;;;;6.80;4.30;;;;;;;;;;5031425;28;20026;-66
2023/05/09 03:58:46;;;;;;;6.37;4.37;;;;;;;;;;5037437;28;20469;-66
2023/05/09 04:01:12;;;;;;;7.80;4.30;;;;;;;;;;5031249;28;20100;-66
2023/05/09 04:03:37;;;;;;;7.77;4.90;;;;;;;;;;5034046;28;20037;-66
2023/05/09 04:06:03;;;;;;;8.30;4.20;;;;;;;;;;5032915;28;20026;-66
2023/05/09 04:08:29;;;;;;;7.47;4.20;;;;;;;;;;5032568;28;20389;-66
2023/05/09 04:10:54;;;;;;;7.60;4.30;;;;;;;;;;5029877;28;20018;-66
2023/05/09 04:13:19;;;;;;;9.77;4.73;;;;;;;;;;5030724;28;20045;-67
2023/05/09 04:15:45;;;;;;;7.13;4.20;;;;;;;;;;5031432;28;20029;-66
2023/05/09 04:18:10;;;;;;;7.27;4.30;;;;;;;;;;5034863;28;20044;-67
2023/05/09 04:20:35;;;;;;;7.70;4.37;;;;;;;;;;5031747;28;20030;-67
2023/05/09 04:23:00;;;;;;;6.50;4.30;;;;;;;;;;5036799;28;20024;-66
2023/05/09 04:25:26;;;;;;;8.43;4.50;;;;;;;;;;5034099;28;20341;-66
2023/05/09 04:27:51;;;;;;;8.17;4.23;;;;;;;;;;5028203;28;20017;-67
2023/05/09 04:30:17;;;;;;;10.30;4.50;;;;;;;;;;5030264;28;20054;-67
2023/05/09 04:32:44;;;;;;;7.43;4.50;;;;;;;;;;5032398;28;20029;-67
2023/05/09 04:35:10;;;;;;;7.50;4.10;;;;;;;;;;5033326;28;20029;-67
2023/05/09 04:37:35;;;;;;;8.90;3.93;;;;;;;;;;5029422;28;20029;-66
2023/05/09 04:40:01;;;;;;;9.30;4.17;;;;;;;;;;5032509;28;20026;-66
2023/05/09 04:42:26;;;;;;;7.50;4.37;;;;;;;;;;5027439;28;20057;-67
2023/05/09 04:44:51;;;;;;;11.63;7.73;;;;;;;;;;5032412;28;20076;-66
2023/05/09 04:47:16;;;;;;;8.47;4.20;;;;;;;;;;5032607;28;20025;-66
2023/05/09 04:49:42;;;;;;;8.07;4.03;;;;;;;;;;5030446;28;20101;-67
2023/05/09 04:52:07;;;;;;;8.90;5.33;;;;;;;;;;5028915;28;20083;-67
2023/05/09 04:54:32;;;;;;;8.87;4.40;;;;;;;;;;5029926;28;20515;-66
2023/05/09 04:56:58;;;;;;;7.77;4.50;;;;;;;;;;5033376;28;20155;-66
2023/05/09 04:59:23;;;;;;;7.30;4.53;;;;;;;;;;5029132;28;20068;-66
2023/05/09 05:01:48;;;;;;;7.37;4.50;;;;;;;;;;5026589;28;20052;-66
2023/05/09 05:04:14;;;;;;;6.50;4.80;;;;;;;;;;5031263;28;20505;-66
2023/05/09 05:06:39;;;;;;;6.80;4.13;;;;;;;;;;5029162;28;20370;-66
2023/05/09 05:09:04;;;;;;;5.63;3.90;;;;;;;;;;5033972;28;20024;-66
2023/05/09 05:11:30;;;;;;;6.00;3.80;;;;;;;;;;5025895;28;20405;-66
2023/05/09 05:13:55;;;;;;;7.03;4.00;;;;;;;;;;5033320;28;20033;-65
2023/05/09 05:16:20;;;;;;;6.38;3.70;;;;;;;;;;5029270;28;20025;-66
2023/05/09 05:18:45;;;;;;;7.00;4.03;;;;;;;;;;5030837;28;20080;-65
2023/05/09 05:21:11;;;;;;;7.20;3.72;;;;;;;;;;5028899;28;20025;-65
2023/05/09 05:23:36;;;;;;;7.38;3.85;;;;;;;;;;5033103;28;20040;-66
2023/05/09 05:26:01;;;;;;;7.53;3.67;;;;;;;;;;5033992;28;20025;-66
2023/05/09 05:28:27;;;;;;;6.72;3.30;;;;;;;;;;5030214;28;20080;-66
2023/05/09 05:30:52;;;;;;;8.45;3.58;;;;;;;;;;5027484;28;20071;-66
2023/05/09 05:33:17;;;;;;;5.85;3.38;;;;;;;;;;5027371;28;20072;-66
2023/05/09 05:35:43;;;;;;;7.63;3.30;;;;;;;;;;5026844;28;20042;-66
2023/05/09 05:38:08;;;;;;;19.00;11.07;;;;;;;;;;5023758;28;20032;-66
2023/05/09 05:40:33;;;;;;;5.85;3.00;;;;;;;;;;5031681;28;20029;-66
2023/05/09 05:42:58;;;;;;;6.20;3.05;;;;;;;;;;5032829;28;20033;-66
2023/05/09 05:45:24;;;;;;;5.68;3.45;;;;;;;;;;5032239;28;20489;-66
2023/05/09 05:47:49;;;;;;;7.43;3.10;;;;;;;;;;5030450;28;20496;-66
2023/05/09 05:50:14;;;;;;;4.70;3.20;;;;;;;;;;5029009;28;20156;-67
2023/05/09 05:52:40;;;;;;;7.55;3.40;;;;;;;;;;5020909;28;20120;-66
2023/05/09 05:55:06;;;;;;;6.80;3.88;;;;;;;;;;5030949;28;20489;-66
2023/05/09 05:57:33;;;;;;;7.20;3.45;;;;;;;;;;5032957;28;20025;-66
2023/05/09 05:59:58;;;;;;;10.35;4.00;;;;;;;;;;5030091;28;20037;-67
2023/05/09 06:02:24;;;;;;;5.60;3.78;;;;;;;;;;5033403;28;20052;-67
2023/05/09 06:04:49;;;;;;;8.50;3.40;;;;;;;;;;5032510;28;20036;-67
2023/05/09 06:07:14;;;;;;;6.75;4.13;;;;;;;;;;5035985;28;20021;-67
2023/05/09 06:09:40;;;;;;;6.57;3.90;;;;;;;;;;5032973;28;20021;-66
2023/05/09 06:12:05;;;;;;;7.50;3.50;;;;;;;;;;5033673;28;20021;-67
2023/05/09 06:14:30;;;;;;;8.35;3.83;;;;;;;;;;5031722;28;20025;-67
2023/05/09 06:16:56;;;;;;;6.03;4.10;;;;;;;;;;5031195;28;20029;-67
2023/05/09 06:19:22;;;;;;;5.78;3.80;;;;;;;;;;5032339;28;20104;-67
2023/05/09 06:21:47;;;;;;;7.07;3.78;;;;;;;;;;5034056;28;20022;-67
2023/05/09 06:24:12;;;;;;;7.65;3.63;;;;;;;;;;5036924;28;20033;-67
2023/05/09 06:26:38;;;;;;;6.45;3.92;;;;;;;;;;5032993;28;20024;-67
2023/05/09 06:29:04;;;;;;;11.90;4.18;;;;;;;;;;5032344;28;20044;-68
2023/05/09 06:31:30;;;;;;;7.47;4.13;;;;;;;;;;5031689;28;20500;-68
2023/05/09 06:33:55;;;;;;;8.63;4.20;;;;;;;;;;5030813;28;20033;-68
2023/05/09 06:36:20;;;;;;;8.88;4.25;;;;;;;;;;5032440;28;20024;-68
2023/05/09 06:38:46;;;;;;;6.38;4.13;;;;;;;;;;5032449;28;20492;-68
2023/05/09 06:41:11;;;;;;;8.63;4.10;;;;;;;;;;5032299;28;20436;-68
2023/05/09 06:43:36;;;;;;;10.65;4.22;;;;;;;;;;5030611;28;20101;-68
2023/05/09 06:46:02;;;;;;;7.85;4.15;;;;;;;;;;5033110;28;20354;-67
2023/05/09 06:48:27;;;;;;;6.90;4.03;;;;;;;;;;5031148;28;20029;-68
2023/05/09 06:50:52;;;;;;;7.55;4.20;;;;;;;;;;5031319;28;20021;-67
2023/05/09 06:53:17;;;;;;;7.13;4.30;;;;;;;;;;5032158;28;20032;-67
2023/05/09 06:55:43;;;;;;;8.10;4.70;;;;;;;;;;5030304;28;20036;-67
2023/05/09 06:58:08;;;;;;;6.95;5.15;;;;;;;;;;5031615;28;20121;-68
2023/05/09 07:00:33;;;;;;;11.57;5.80;;;;;;;;;;5030558;28;20032;-68
2023/05/09 07:02:59;;;;;;;9.25;5.93;;;;;;;;;;5030210;28;20056;-67
2023/05/09 07:05:25;;;;;;;7.50;4.80;;;;;;;;;;5033355;28;20022;-68
2023/05/09 07:07:50;;;;;;;8.93;5.85;;;;;;;;;;5050530;28;20026;-67
2023/05/09 07:10:16;;;;;;;8.20;5.63;;;;;;;;;;5034786;28;20029;-67
2023/05/09 07:12:41;;;;;;;8.13;5.88;;;;;;;;;;5036026;28;20021;-67
2023/05/09 07:15:07;;;;;;;9.95;5.85;;;;;;;;;;5036215;28;20391;-67
2023/05/09 07:17:32;;;;;;;10.80;6.10;;;;;;;;;;5034121;28;20040;-67
2023/05/09 07:19:57;;;;;;;8.50;5.75;;;;;;;;;;5034384;28;20101;-67
2023/05/09 07:22:23;;;;;;;11.02;6.60;;;;;;;;;;5035871;28;20021;-67
2023/05/09 07:24:49;;;;;;;9.90;6.60;;;;;;;;;;5035910;28;20053;-67
2023/05/09 07:27:15;;;;;;;12.38;7.07;;;;;;;;;;5034507;28;20500;-67
2023/05/09 07:29:40;;;;;;;10.02;6.65;;;;;;;;;;5033910;28;20092;-68
2023/05/09 07:32:05;;;;;;;12.93;6.97;;;;;;;;;;5035435;28;20112;-68
2023/05/09 07:34:30;;;;;;;9.40;6.82;;;;;;;;;;5038664;28;20041;-68
2023/05/09 07:36:57;;;;;;;9.80;6.88;;;;;;;;;;5035712;28;20025;-68
2023/05/09 07:39:22;;;;;;;10.25;6.95;;;;;;;;;;5036532;28;20041;-68
2023/05/09 07:41:48;;;;;;;10.90;6.50;;;;;;;;;;5036404;28;20025;-68
2023/05/09 07:44:13;;;;;;;11.88;6.20;;;;;;;;;;5036176;28;20017;-68
2023/05/09 07:46:40;;;;;;;8.60;6.40;;;;;;;;;;5031167;28;20017;-68
2023/05/09 07:49:06;;;;;;;8.23;6.00;;;;;;;;;;5017110;28;20037;-69
2023/05/09 07:51:31;;;;;;;9.00;6.03;;;;;;;;;;5038468;28;20017;-68
2023/05/09 07:53:57;;;;;;;8.45;6.30;;;;;;;;;;5054213;28;20048;-68
2023/05/09 07:56:22;;;;;;;9.75;6.88;;;;;;;;;;5055927;28;20107;-68
2023/05/09 07:58:48;;;;;;;9.05;7.00;;;;;;;;;;5055949;28;20112;-68
2023/05/09 08:01:13;;;;;;;9.95;6.75;;;;;;;;;;5044064;28;20018;-68
2023/05/09 08:03:38;;;;;;;9.18;6.45;;;;;;;;;;5034442;28;20047;-68
2023/05/09 08:06:04;;;;;;;8.82;6.65;;;;;;;;;;5042452;28;20025;-69
2023/05/09 08:08:29;;;;;;;10.43;5.78;;;;;;;;;;5035048;28;20013;-69
2023/05/09 08:10:55;;;;;;;9.48;6.93;;;;;;;;;;5033893;28;20034;-68
2023/05/09 08:13:21;;;;;;;10.50;7.03;;;;;;;;;;5035040;28;20071;-68
2023/05/09 08:15:46;;;;;;;8.73;7.15;;;;;;;;;;5034774;28;20022;-68
2023/05/09 08:18:11;;;;;;;9.50;7.28;;;;;;;;;;5033701;28;20025;-68
2023/05/09 08:20:37;;;;;;;11.07;7.63;;;;;;;;;;5034586;28;20024;-68
2023/05/09 08:23:02;;;;;;;10.35;7.45;;;;;;;;;;5034851;28;20492;-68
2023/05/09 08:25:28;;;;;;;10.07;7.72;;;;;;;;;;5035302;28;20160;-68
2023/05/09 08:27:53;;;;;;;10.80;7.80;;;;;;;;;;5032444;28;20018;-66
2023/05/09 08:30:19;;;;;;;12.00;7.78;;;;;;;;;;5034486;28;20032;-66
2023/05/09 08:32:44;;;;;;;13.15;8.13;;;;;;;;;;5034727;28;20025;-66
2023/05/09 08:35:10;;;;;;;12.13;8.77;;;;;;;;;;5033064;28;20030;-65
2023/05/09 08:37:36;;;;;;;12.85;9.25;;;;;;;;;;5035320;28;20075;-66
2023/05/09 08:40:03;;;;;;;11.77;8.45;;;;;;;;;;5034311;28;20017;-66
2023/05/09 08:42:28;;;;;;;12.88;8.98;;;;;;;;;;5032391;28;20052;-66
2023/05/09 08:44:54;;;;;;;11.98;8.35;;;;;;;;;;5033607;28;20044;-67
2023/05/09 08:47:20;;;;;;;12.15;8.32;;;;;;;;;;5034119;28;20029;-66
2023/05/09 08:49:46;;;;;;;11.20;9.18;;;;;;;;;;5029914;28;20547;-66
2023/05/09 08:52:12;;;;;;;12.32;8.38;;;;;;;;;;5028852;28;20017;-66
2023/05/09 08:54:38;;;;;;;12.45;8.65;;;;;;;;;;5034240;28;20385;-68
2023/05/09 08:57:03;;;;;;;12.40;8.40;;;;;;;;;;5034146;28;20013;-69
2023/05/09 08:59:29;;;;;;;10.70;8.77;;;;;;;;;;5034334;28;20048;-68
2023/05/09 09:01:55;;;;;;;13.75;8.50;;;;;;;;;;5034372;28;20025;-68
2023/05/09 09:04:21;;;;;;;11.13;9.25;;;;;;;;;;5031066;28;20068;-69
2023/05/09 09:06:46;;;;;;;10.45;8.45;;;;;;;;;;5033176;28;20029;-68
2023/05/09 09:09:12;;;;;;;13.50;8.55;;;;;;;;;;5044868;28;20066;-66
2023/05/09 09:11:39;;;;;;;11.77;8.20;;;;;;;;;;5044265;28;20465;-66
2023/05/09 09:14:24;;;;;;;12.95;8.60;;;;;;;;;;5033915;28;20072;-66
2023/05/09 09:16:50;;;;;;;11.15;8.63;;;;;;;;;;5033933;28;20581;-66
2023/05/09 09:19:16;;;;;;;14.65;9.40;;;;;;;;;;5033506;28;20024;-61
2023/05/09 09:21:43;;;;;;;16.33;9.38;;;;;;;;;;5031851;28;20022;-66
2023/05/09 09:24:11;;;;;;;12.77;8.23;;;;;;;;;;5026770;28;20021;-66
2023/05/09 09:26:44;;;;;;;10.30;8.48;;;;;;;;;;5030241;28;20022;-66
2023/05/09 09:29:09;;;;;;;11.93;9.23;;;;;;;;;;5030379;28;20033;-67
2023/05/09 09:31:35;;;;;;;10.65;7.97;;;;;;;;;;5033646;28;20124;-64
2023/05/09 09:34:00;;;;;;;11.25;8.32;;;;;;;;;;5033890;28;20030;-64
2023/05/09 09:36:27;;;;;;;12.75;8.52;;;;;;;;;;5033852;28;20078;-63
2023/05/09 09:38:55;;;;;;;11.50;8.68;;;;;;;;;;5034157;28;20022;-64
2023/05/09 09:41:28;;;;;;;10.15;8.43;;;;;;;;;;5034132;28;20021;-64
2023/05/09 09:43:55;;;;;;;10.32;7.85;;;;;;;;;;5033092;28;20017;-64
2023/05/09 09:46:20;;;;;;;14.48;8.82;;;;;;;;;;5034026;28;20401;-64
2023/05/09 09:48:50;;;;;;;14.05;9.65;;;;;;;;;;5032616;28;20029;-64
2023/05/09 09:51:17;;;;;;;12.10;8.90;;;;;;;;;;5033984;28;20014;-64
2023/05/09 09:53:42;;;;;;;14.73;9.02;;;;;;;;;;5033879;28;20104;-64
2023/05/09 09:56:08;;;;;;;11.68;8.35;;;;;;;;;;5035951;28;20473;-64
2023/05/09 09:58:33;;;;;;;11.45;8.68;;;;;;;;;;5050060;28;20024;-65
2023/05/09 10:01:24;;;;;;;13.45;8.98;;;;;;;;;;5046784;28;20044;-64
2023/05/09 10:03:50;;;;;;;;;;;;;;;;;;5020525;28;20490;-64
2023/05/09 10:06:18;;;;;;;12.30;8.17;;;;;;;;;;5033224;28;19909;-64
2023/05/09 10:08:47;;;;;;;11.40;8.15;;;;;;;;;;5032509;28;20279;-65
2023/05/09 10:11:14;;;;;;;12.40;8.57;;;;;;;;;;5032606;28;20036;-65
2023/05/09 10:13:40;;;;;;;10.50;7.50;;;;;;;;;;5032013;28;20029;-65
2023/05/09 10:16:07;;;;;;;10.50;8.48;;;;;;;;;;5032649;28;20037;-66
2023/05/09 10:18:33;;;;;;;13.20;8.95;;;;;;;;;;5031000;28;20052;-66
2023/05/09 10:21:02;;;;;;;10.93;8.60;;;;;;;;;;5036599;28;20474;-65
2023/05/09 10:23:29;;;;;;;11.18;8.50;;;;;;;;;;5047610;28;20078;-64
2023/05/09 10:26:26;;;;;;;12.18;8.07;;;;;;;;;;5033192;28;20021;-65
2023/05/09 10:28:53;;;;;;;11.50;9.15;;;;;;;;;;5022405;28;20075;-64
2023/05/09 10:31:25;;;;;;;13.55;8.95;;;;;;;;;;5032258;28;20021;-64
2023/05/09 10:33:51;;;;;;;12.38;8.55;;;;;;;;;;5030692;28;20026;-65
2023/05/09 10:36:17;;;;;;;10.98;8.43;;;;;;;;;;5033139;28;20020;-64
2023/05/09 10:38:43;;;;;;;13.73;8.45;;;;;;;;;;5030083;28;20033;-65
2023/05/09 10:41:09;;;;;;;14.05;9.25;;;;;;;;;;5029934;28;20022;-64
2023/05/09 10:43:35;;;;;;;12.57;8.48;;;;;;;;;;5031280;28;20385;-65
2023/05/09 10:46:00;;;;;;;10.55;8.23;;;;;;;;;;5031562;28;20458;-65
2023/05/09 10:48:26;;;;;;;11.85;8.38;;;;;;;;;;5032481;28;20028;-63
2023/05/09 10:50:52;;;;;;;12.68;8.43;;;;;;;;;;5032717;28;20512;-65
2023/05/09 10:53:17;;;;;;;12.02;8.38;;;;;;;;;;5032198;28;20432;-64
2023/05/09 10:55:50;;;;;;;11.15;8.30;;;;;;;;;;5026669;28;20516;-65
2023/05/09 10:58:26;;;;;;;15.27;8.77;;;;;;;;;;5031351;28;20041;-65
2023/05/09 11:00:51;;;;;;;11.07;9.05;;;;;;;;;;5030937;28;20087;-65
2023/05/09 11:03:18;;;;;;;11.45;8.32;;;;;;;;;;5029606;28;20405;-66
2023/05/09 11:05:43;;;;;;;11.73;8.40;;;;;;;;;;5031022;28;20045;-65
2023/05/09 11:08:25;;;;;;;11.40;8.60;;;;;;;;;;5031442;28;20394;-65
2023/05/09 11:10:51;;;;;;;11.05;7.95;;;;;;;;;;5029810;28;20020;-66
2023/05/09 11:13:17;;;;;;;11.75;8.65;;;;;;;;;;5030094;28;20489;-66
2023/05/09 11:15:49;;;;;;;13.13;9.70;;;;;;;;;;5030205;28;20052;-66
2023/05/09 11:18:14;;;;;;;14.38;9.32;;;;;;;;;;5031982;28;20025;-66
2023/05/09 11:20:44;;;;;;;12.73;9.85;;;;;;;;;;5043230;28;20025;-65
2023/05/09 11:23:10;;;;;;;11.77;9.25;;;;;;;;;;5032150;28;20026;-66
2023/05/09 11:25:37;;;;;;;10.93;8.82;;;;;;;;;;5030770;28;20033;-65
2023/05/09 11:28:03;;;;;;;11.40;8.57;;;;;;;;;;5030680;28;20017;-66
2023/05/09 11:30:37;;;;;;;10.20;8.35;;;;;;;;;;5034662;28;20025;-66
2023/05/09 11:33:05;;;;;;;11.20;8.05;;;;;;;;;;5030834;28;20025;-66
2023/05/09 11:35:32;;;;;;;12.23;7.97;;;;;;;;;;5030241;28;20017;-66
2023/05/09 11:38:01;;;;;;;11.88;7.93;;;;;;;;;;5030628;28;20481;-66
2023/05/09 11:40:27;;;;;;;12.73;8.00;;;;;;;;;;5032673;28;20049;-66
2023/05/09 11:42:54;;;;;;;12.43;8.32;;;;;;;;;;5031756;28;20072;-66
2023/05/09 11:45:20;;;;;;;10.38;8.02;;;;;;;;;;5031200;28;20040;-65
2023/05/09 11:47:46;;;;;;;12.73;8.45;;;;;;;;;;5031701;28;20092;-65
2023/05/09 11:50:12;;;;;;;12.05;7.93;;;;;;;;;;5037882;28;20517;-66
2023/05/09 11:52:38;;;;;;;10.13;7.93;;;;;;;;;;5034413;28;20091;-65
2023/05/09 11:55:10;;;;;;;11.13;7.88;;;;;;;;;;5035626;28;20100;-65
2023/05/09 11:57:54;;;;;;;10.40;7.30;;;;;;;;;;5033558;28;20115;-66
2023/05/09 12:00:23;;;;;;;10.60;6.70;;;;;;;;;;5035122;28;20025;-64
2023/05/09 12:02:49;;;;;;;8.60;6.82;;;;;;;;;;5049079;28;20095;-66
2023/05/09 12:05:17;;;;;;;9.35;7.07;;;;;;;;;;5029126;28;20101;-66
2023/05/09 12:07:43;;;;;;;10.05;6.43;;;;;;;;;;5038193;28;20124;-66
2023/05/09 12:10:09;;;;;;;10.45;7.13;;;;;;;;;;5036044;28;20025;-66
2023/05/09 12:12:35;;;;;;;9.90;6.63;;;;;;;;;;5033271;28;20052;-65
2023/05/09 12:15:01;;;;;;;8.82;6.38;;;;;;;;;;5035205;28;20056;-66
2023/05/09 12:17:27;;;;;;;8.57;6.20;;;;;;;;;;5035784;28;20384;-66
2023/05/09 12:19:52;;;;;;;8.93;7.07;;;;;;;;;;5035134;28;20025;-66
2023/05/09 12:22:20;;;;;;;8.73;6.65;;;;;;;;;;5034727;28;20032;-65
2023/05/09 12:24:45;;;;;;;9.60;7.65;;;;;;;;;;5033383;28;20021;-65
2023/05/09 12:27:10;;;;;;;10.77;7.38;;;;;;;;;;5033677;28;20364;-65
2023/05/09 12:29:35;;;;;;;9.50;6.93;;;;;;;;;;5032787;28;20100;-66
2023/05/09 12:32:01;;;;;;;11.32;7.70;;;;;;;;;;5035394;28;20017;-66
2023/05/09 12:34:26;;;;;;;8.65;6.68;;;;;;;;;;5032822;28;20037;-66
2023/05/09 12:36:52;;;;;;;9.18;6.65;;;;;;;;;;5034953;28;20134;-66
2023/05/09 12:39:20;;;;;;;9.98;7.10;;;;;;;;;;5034534;28;20052;-66
2023/05/09 12:41:46;;;;;;;10.85;7.07;;;;;;;;;;5035113;28;20432;-66
2023/05/09 12:44:21;;;;;;;9.02;6.90;;;;;;;;;;5032797;28;20013;-66
2023/05/09 12:47:02;;;;;;;9.07;6.50;;;;;;;;;;5034207;28;20109;-66
2023/05/09 12:49:28;;;;;;;13.13;7.90;;;;;;;;;;5034389;28;20048;-65
2023/05/09 12:51:54;;;;;;;9.48;7.97;;;;;;;;;;5033381;28;20052;-65
2023/05/09 12:54:23;;;;;;;12.55;7.43;;;;;;;;;;5034120;28;20488;-65
2023/05/09 12:56:51;;;;;;;10.07;7.03;;;;;;;;;;5033946;28;20096;-65
2023/05/09 12:59:19;;;;;;;10.55;7.80;;;;;;;;;;5033863;28;20030;-66
2023/05/09 13:01:44;;;;;;;9.82;7.15;;;;;;;;;;5031326;28;20063;-66
2023/05/09 13:04:10;;;;;;;10.45;7.07;;;;;;;;;;5029364;28;20049;-66
2023/05/09 13:06:46;;;;;;;12.35;7.30;;;;;;;;;;5032397;28;20390;-65
2023/05/09 13:09:11;;;;;;;10.55;7.75;;;;;;;;;;5034709;28;20026;-66
2023/05/09 13:11:37;;;;;;;9.10;6.97;;;;;;;;;;5034405;28;20022;-66
2023/05/09 13:14:02;;;;;;;11.00;7.45;;;;;;;;;;5031295;28;20028;-66
2023/05/09 13:16:28;;;;;;;9.63;7.47;;;;;;;;;;5034364;28;20017;-66
2023/05/09 13:18:53;;;;;;;11.95;7.28;;;;;;;;;;5034490;28;20023;-66
2023/05/09 13:21:19;;;;;;;12.68;8.02;;;;;;;;;;5034172;28;20076;-67
2023/05/09 13:23:44;;;;;;;9.10;6.82;;;;;;;;;;5034035;28;20079;-67
2023/05/09 13:26:09;;;;;;;10.02;7.60;;;;;;;;;;5034080;28;20024;-65
2023/05/09 13:28:35;;;;;;;11.75;6.80;;;;;;;;;;5034790;28;20039;-66
2023/05/09 13:31:00;;;;;;;11.10;7.18;;;;;;;;;;5035972;28;20032;-66
2023/05/09 13:33:26;;;;;;;12.82;7.80;;;;;;;;;;5033966;28;20032;-66
2023/05/09 13:35:51;;;;;;;9.52;7.25;;;;;;;;;;5034309;28;20029;-66
2023/05/09 13:38:17;;;;;;;9.32;7.30;;;;;;;;;;5036332;28;20024;-66
2023/05/09 13:40:42;;;;;;;13.05;8.32;;;;;;;;;;5033924;28;20021;-65
2023/05/09 13:43:07;;;;;;;11.88;7.80;;;;;;;;;;5034096;28;20028;-66
2023/05/09 13:45:32;;;;;;;11.10;7.85;;;;;;;;;;5051930;28;20404;-64
2023/05/09 13:47:58;;;;;;;9.80;7.35;;;;;;;;;;5035997;28;20025;-64
2023/05/09 13:50:23;;;;;;;10.05;6.70;;;;;;;;;;5034104;28;20027;-65
2023/05/09 13:52:48;;;;;;;11.10;7.18;;;;;;;;;;5033645;28;20465;-65
2023/05/09 13:55:14;;;;;;;9.25;6.97;;;;;;;;;;5033748;28;20377;-65
2023/05/09 13:57:39;;;;;;;13.20;9.82;;;;;;;;;;5033538;28;20024;-67
2023/05/09 14:00:05;;;;;;;14.45;8.63;;;;;;;;;;5033705;28;20100;-66
2023/05/09 14:02:31;;;;;;;11.77;8.13;;;;;;;;;;5040421;28;20053;-69
2023/05/09 14:04:57;;;;;;;23.77;13.05;;;;;;;;;;5046141;28;20362;-68
2023/05/09 14:07:23;;;;;;;23.63;14.13;;;;;;;;;;5032626;28;20045;-67
2023/05/09 14:09:48;;;;;;;22.55;13.90;;;;;;;;;;5035220;28;20036;-67
2023/05/09 14:12:13;;;;;;;15.95;9.80;;;;;;;;;;5033786;28;20025;-66
2023/05/09 14:14:39;;;;;;;15.82;10.05;;;;;;;;;;5030559;28;20032;-66
2023/05/09 14:17:04;;;;;;;14.57;9.82;;;;;;;;;;5032402;28;20032;-66
2023/05/09 14:19:29;;;;;;;18.73;12.07;;;;;;;;;;5042255;28;20021;-67
2023/05/09 14:21:55;;;;;;;21.35;12.70;;;;;;;;;;5033468;28;20040;-66
2023/05/09 14:24:20;;;;;;;23.17;14.20;;;;;;;;;;5032798;28;20025;-66
2023/05/09 14:26:45;;;;;;;16.75;10.32;;;;;;;;;;5033455;28;20155;-66
2023/05/09 14:29:11;;;;;;;15.88;10.85;;;;;;;;;;5031250;28;20491;-65
2023/05/09 14:31:36;;;;;;;15.73;9.82;;;;;;;;;;5030400;28;20474;-66
2023/05/09 14:34:03;;;;;;;15.32;9.63;;;;;;;;;;5030759;28;20021;-66